sensor_id;sensor_type;location;lat;lon;timestamp;P1;durP1;ratioP1;P2;durP2;ratioP2
70228;SDS011;57617;51.988;5.854;2023-08-12T00:00:04;21.15;;;12.38;;
70228;SDS011;57617;51.988;5.854;2023-08-12T00:02:40;25.02;;;13.18;;
70228;SDS011;57617;51.988;5.854;2023-08-12T00:05:06;26.02;;;12.23;;
70228;SDS011;57617;51.988;5.854;2023-08-12T00:07:32;24.63;;;11.48;;
70228;SDS011;57617;51.988;5.854;2023-08-12T00:09:58;22.95;;;12.90;;
70228;SDS011;57617;51.988;5.854;2023-08-12T00:12:28;21.98;;;12.32;;
70228;SDS011;57617;51.988;5.854;2023-08-12T00:14:54;22.98;;;13.13;;
70228;SDS011;57617;51.988;5.854;2023-08-12T00:17:19;27.23;;;13.18;;
70228;SDS011;57617;51.988;5.854;2023-08-12T00:19:45;25.33;;;13.07;;
70228;SDS011;57617;51.988;5.854;2023-08-12T00:22:10;24.42;;;12.90;;
70228;SDS011;57617;51.988;5.854;2023-08-12T00:24:35;22.52;;;12.35;;
70228;SDS011;57617;51.988;5.854;2023-08-12T00:27:01;22.65;;;12.68;;
70228;SDS011;57617;51.988;5.854;2023-08-12T00:29:26;25.10;;;12.43;;
70228;SDS011;57617;51.988;5.854;2023-08-12T00:31:51;26.00;;;12.85;;
70228;SDS011;57617;51.988;5.854;2023-08-12T00:34:17;27.33;;;13.75;;
70228;SDS011;57617;51.988;5.854;2023-08-12T00:36:42;21.75;;;11.82;;
70228;SDS011;57617;51.988;5.854;2023-08-12T00:39:08;28.83;;;13.30;;
70228;SDS011;57617;51.988;5.854;2023-08-12T00:41:33;24.13;;;11.93;;
70228;SDS011;57617;51.988;5.854;2023-08-12T00:43:58;25.15;;;13.23;;
70228;SDS011;57617;51.988;5.854;2023-08-12T00:46:24;25.13;;;12.75;;
70228;SDS011;57617;51.988;5.854;2023-08-12T00:48:49;22.75;;;12.50;;
70228;SDS011;57617;51.988;5.854;2023-08-12T00:51:15;22.05;;;13.30;;
70228;SDS011;57617;51.988;5.854;2023-08-12T00:53:42;30.98;;;13.70;;
70228;SDS011;57617;51.988;5.854;2023-08-12T00:56:08;25.45;;;12.90;;
70228;SDS011;57617;51.988;5.854;2023-08-12T00:58:34;25.42;;;12.18;;
70228;SDS011;57617;51.988;5.854;2023-08-12T01:01:00;23.98;;;13.07;;
70228;SDS011;57617;51.988;5.854;2023-08-12T01:03:25;24.63;;;13.30;;
70228;SDS011;57617;51.988;5.854;2023-08-12T01:05:51;31.20;;;14.02;;
70228;SDS011;57617;51.988;5.854;2023-08-12T01:08:17;23.38;;;13.10;;
70228;SDS011;57617;51.988;5.854;2023-08-12T01:10:44;26.90;;;13.13;;
70228;SDS011;57617;51.988;5.854;2023-08-12T01:15:57;27.25;;;12.93;;
70228;SDS011;57617;51.988;5.854;2023-08-12T01:18:25;26.77;;;12.73;;
70228;SDS011;57617;51.988;5.854;2023-08-12T01:20:52;21.45;;;12.15;;
70228;SDS011;57617;51.988;5.854;2023-08-12T01:23:18;23.58;;;12.63;;
70228;SDS011;57617;51.988;5.854;2023-08-12T01:25:45;21.63;;;11.85;;
70228;SDS011;57617;51.988;5.854;2023-08-12T01:28:10;23.42;;;12.45;;
70228;SDS011;57617;51.988;5.854;2023-08-12T01:30:39;19.75;;;11.70;;
70228;SDS011;57617;51.988;5.854;2023-08-12T01:33:14;24.50;;;11.63;;
70228;SDS011;57617;51.988;5.854;2023-08-12T01:36:07;19.48;;;11.35;;
70228;SDS011;57617;51.988;5.854;2023-08-12T01:38:38;24.38;;;11.07;;
70228;SDS011;57617;51.988;5.854;2023-08-12T01:41:04;21.95;;;11.68;;
70228;SDS011;57617;51.988;5.854;2023-08-12T01:43:32;19.73;;;10.73;;
70228;SDS011;57617;51.988;5.854;2023-08-12T01:45:58;22.15;;;11.43;;
70228;SDS011;57617;51.988;5.854;2023-08-12T01:48:23;21.58;;;11.35;;
70228;SDS011;57617;51.988;5.854;2023-08-12T01:50:49;25.08;;;11.68;;
70228;SDS011;57617;51.988;5.854;2023-08-12T01:53:14;23.90;;;12.40;;
70228;SDS011;57617;51.988;5.854;2023-08-12T01:55:42;25.95;;;11.13;;
70228;SDS011;57617;51.988;5.854;2023-08-12T01:58:08;23.77;;;12.32;;
70228;SDS011;57617;51.988;5.854;2023-08-12T02:00:34;26.58;;;12.70;;
70228;SDS011;57617;51.988;5.854;2023-08-12T02:02:59;23.30;;;12.60;;
70228;SDS011;57617;51.988;5.854;2023-08-12T02:05:24;29.02;;;14.98;;
70228;SDS011;57617;51.988;5.854;2023-08-12T02:07:50;27.70;;;15.18;;
70228;SDS011;57617;51.988;5.854;2023-08-12T02:10:15;26.75;;;13.50;;
70228;SDS011;57617;51.988;5.854;2023-08-12T02:12:40;25.60;;;14.07;;
70228;SDS011;57617;51.988;5.854;2023-08-12T02:15:06;28.50;;;15.10;;
70228;SDS011;57617;51.988;5.854;2023-08-12T02:17:31;30.70;;;16.52;;
70228;SDS011;57617;51.988;5.854;2023-08-12T02:19:57;30.08;;;15.80;;
70228;SDS011;57617;51.988;5.854;2023-08-12T02:22:22;31.05;;;15.63;;
70228;SDS011;57617;51.988;5.854;2023-08-12T02:24:48;33.72;;;16.75;;
70228;SDS011;57617;51.988;5.854;2023-08-12T02:27:13;32.05;;;17.95;;
70228;SDS011;57617;51.988;5.854;2023-08-12T02:29:38;30.20;;;15.60;;
70228;SDS011;57617;51.988;5.854;2023-08-12T02:32:04;26.70;;;15.10;;
70228;SDS011;57617;51.988;5.854;2023-08-12T02:34:29;28.52;;;15.32;;
70228;SDS011;57617;51.988;5.854;2023-08-12T02:36:54;34.22;;;16.55;;
70228;SDS011;57617;51.988;5.854;2023-08-12T02:39:20;32.70;;;16.42;;
70228;SDS011;57617;51.988;5.854;2023-08-12T02:41:45;29.33;;;17.08;;
70228;SDS011;57617;51.988;5.854;2023-08-12T02:44:10;31.95;;;16.65;;
70228;SDS011;57617;51.988;5.854;2023-08-12T02:46:36;34.78;;;18.02;;
70228;SDS011;57617;51.988;5.854;2023-08-12T02:49:01;30.17;;;17.85;;
70228;SDS011;57617;51.988;5.854;2023-08-12T02:51:26;31.10;;;18.17;;
70228;SDS011;57617;51.988;5.854;2023-08-12T02:53:52;30.85;;;16.65;;
70228;SDS011;57617;51.988;5.854;2023-08-12T02:56:17;28.65;;;15.95;;
70228;SDS011;57617;51.988;5.854;2023-08-12T02:58:42;34.38;;;17.85;;
70228;SDS011;57617;51.988;5.854;2023-08-12T03:01:08;31.30;;;17.00;;
70228;SDS011;57617;51.988;5.854;2023-08-12T03:03:33;35.28;;;18.05;;
70228;SDS011;57617;51.988;5.854;2023-08-12T03:05:58;34.50;;;17.85;;
70228;SDS011;57617;51.988;5.854;2023-08-12T03:08:24;35.15;;;19.23;;
70228;SDS011;57617;51.988;5.854;2023-08-12T03:10:49;29.58;;;18.08;;
70228;SDS011;57617;51.988;5.854;2023-08-12T03:13:15;34.05;;;18.98;;
70228;SDS011;57617;51.988;5.854;2023-08-12T03:15:40;37.35;;;19.67;;
70228;SDS011;57617;51.988;5.854;2023-08-12T03:18:07;35.45;;;19.77;;
70228;SDS011;57617;51.988;5.854;2023-08-12T03:20:32;33.88;;;17.88;;
70228;SDS011;57617;51.988;5.854;2023-08-12T03:22:58;32.17;;;18.55;;
70228;SDS011;57617;51.988;5.854;2023-08-12T03:25:23;33.88;;;19.17;;
70228;SDS011;57617;51.988;5.854;2023-08-12T03:27:48;39.67;;;19.33;;
70228;SDS011;57617;51.988;5.854;2023-08-12T03:30:14;34.33;;;18.67;;
70228;SDS011;57617;51.988;5.854;2023-08-12T03:32:39;31.52;;;18.48;;
70228;SDS011;57617;51.988;5.854;2023-08-12T03:35:04;35.95;;;19.05;;
70228;SDS011;57617;51.988;5.854;2023-08-12T03:37:30;37.88;;;18.85;;
70228;SDS011;57617;51.988;5.854;2023-08-12T03:39:55;43.75;;;19.52;;
70228;SDS011;57617;51.988;5.854;2023-08-12T03:42:20;35.67;;;18.48;;
70228;SDS011;57617;51.988;5.854;2023-08-12T03:44:46;36.83;;;20.10;;
70228;SDS011;57617;51.988;5.854;2023-08-12T03:47:11;35.97;;;20.35;;
70228;SDS011;57617;51.988;5.854;2023-08-12T03:49:37;39.55;;;20.35;;
70228;SDS011;57617;51.988;5.854;2023-08-12T03:52:02;40.67;;;20.15;;
70228;SDS011;57617;51.988;5.854;2023-08-12T03:54:28;33.90;;;18.63;;
70228;SDS011;57617;51.988;5.854;2023-08-12T03:56:53;35.28;;;19.25;;
70228;SDS011;57617;51.988;5.854;2023-08-12T03:59:19;37.15;;;19.17;;
70228;SDS011;57617;51.988;5.854;2023-08-12T04:01:44;35.88;;;18.80;;
70228;SDS011;57617;51.988;5.854;2023-08-12T04:04:09;38.53;;;19.67;;
70228;SDS011;57617;51.988;5.854;2023-08-12T04:06:35;33.78;;;19.88;;
70228;SDS011;57617;51.988;5.854;2023-08-12T04:09:00;33.70;;;19.58;;
70228;SDS011;57617;51.988;5.854;2023-08-12T04:11:25;34.05;;;18.92;;
70228;SDS011;57617;51.988;5.854;2023-08-12T04:13:50;37.40;;;19.83;;
70228;SDS011;57617;51.988;5.854;2023-08-12T04:16:16;37.83;;;20.00;;
70228;SDS011;57617;51.988;5.854;2023-08-12T04:18:41;40.90;;;19.80;;
70228;SDS011;57617;51.988;5.854;2023-08-12T04:21:07;37.33;;;19.25;;
70228;SDS011;57617;51.988;5.854;2023-08-12T04:23:32;35.92;;;18.55;;
70228;SDS011;57617;51.988;5.854;2023-08-12T04:25:58;34.47;;;18.38;;
70228;SDS011;57617;51.988;5.854;2023-08-12T04:28:23;33.15;;;18.30;;
70228;SDS011;57617;51.988;5.854;2023-08-12T04:30:49;33.05;;;18.13;;
70228;SDS011;57617;51.988;5.854;2023-08-12T04:33:17;36.97;;;19.50;;
70228;SDS011;57617;51.988;5.854;2023-08-12T04:35:44;32.25;;;18.80;;
70228;SDS011;57617;51.988;5.854;2023-08-12T04:38:10;34.22;;;18.67;;
70228;SDS011;57617;51.988;5.854;2023-08-12T04:40:38;37.95;;;19.02;;
70228;SDS011;57617;51.988;5.854;2023-08-12T04:43:04;36.08;;;20.02;;
70228;SDS011;57617;51.988;5.854;2023-08-12T04:45:30;34.35;;;20.10;;
70228;SDS011;57617;51.988;5.854;2023-08-12T04:47:55;38.10;;;21.38;;
70228;SDS011;57617;51.988;5.854;2023-08-12T04:50:20;38.75;;;22.17;;
70228;SDS011;57617;51.988;5.854;2023-08-12T04:52:46;39.97;;;21.63;;
70228;SDS011;57617;51.988;5.854;2023-08-12T04:55:11;37.45;;;20.77;;
70228;SDS011;57617;51.988;5.854;2023-08-12T04:57:37;37.40;;;22.50;;
70228;SDS011;57617;51.988;5.854;2023-08-12T05:00:03;40.83;;;21.85;;
70228;SDS011;57617;51.988;5.854;2023-08-12T05:02:29;36.72;;;21.02;;
70228;SDS011;57617;51.988;5.854;2023-08-12T05:04:54;36.40;;;21.23;;
70228;SDS011;57617;51.988;5.854;2023-08-12T05:07:19;39.17;;;21.95;;
70228;SDS011;57617;51.988;5.854;2023-08-12T05:09:45;39.17;;;20.73;;
70228;SDS011;57617;51.988;5.854;2023-08-12T05:12:10;39.33;;;21.70;;
70228;SDS011;57617;51.988;5.854;2023-08-12T05:14:36;42.28;;;22.08;;
70228;SDS011;57617;51.988;5.854;2023-08-12T05:17:02;38.05;;;21.40;;
70228;SDS011;57617;51.988;5.854;2023-08-12T05:19:27;41.78;;;22.05;;
70228;SDS011;57617;51.988;5.854;2023-08-12T05:21:53;39.53;;;20.38;;
70228;SDS011;57617;51.988;5.854;2023-08-12T05:24:18;36.97;;;20.52;;
70228;SDS011;57617;51.988;5.854;2023-08-12T05:26:43;41.60;;;20.27;;
70228;SDS011;57617;51.988;5.854;2023-08-12T05:29:09;36.90;;;20.27;;
70228;SDS011;57617;51.988;5.854;2023-08-12T05:31:34;35.25;;;19.20;;
70228;SDS011;57617;51.988;5.854;2023-08-12T05:33:59;30.17;;;18.55;;
70228;SDS011;57617;51.988;5.854;2023-08-12T05:36:25;34.78;;;18.92;;
70228;SDS011;57617;51.988;5.854;2023-08-12T05:38:50;38.10;;;19.52;;
70228;SDS011;57617;51.988;5.854;2023-08-12T05:41:16;42.03;;;20.48;;
70228;SDS011;57617;51.988;5.854;2023-08-12T05:43:41;35.90;;;19.48;;
70228;SDS011;57617;51.988;5.854;2023-08-12T05:46:07;36.10;;;20.67;;
70228;SDS011;57617;51.988;5.854;2023-08-12T05:48:32;37.05;;;19.70;;
70228;SDS011;57617;51.988;5.854;2023-08-12T05:50:57;34.40;;;18.60;;
70228;SDS011;57617;51.988;5.854;2023-08-12T05:53:22;36.92;;;19.67;;
70228;SDS011;57617;51.988;5.854;2023-08-12T05:55:48;39.60;;;19.48;;
70228;SDS011;57617;51.988;5.854;2023-08-12T05:58:13;35.47;;;18.58;;
70228;SDS011;57617;51.988;5.854;2023-08-12T06:00:38;35.38;;;17.88;;
70228;SDS011;57617;51.988;5.854;2023-08-12T06:03:04;30.70;;;16.83;;
70228;SDS011;57617;51.988;5.854;2023-08-12T06:05:29;30.77;;;16.48;;
70228;SDS011;57617;51.988;5.854;2023-08-12T06:07:54;34.05;;;17.73;;
70228;SDS011;57617;51.988;5.854;2023-08-12T06:10:20;32.90;;;16.58;;
70228;SDS011;57617;51.988;5.854;2023-08-12T06:12:45;28.13;;;15.93;;
70228;SDS011;57617;51.988;5.854;2023-08-12T06:15:10;27.80;;;14.77;;
70228;SDS011;57617;51.988;5.854;2023-08-12T06:17:36;28.75;;;14.75;;
70228;SDS011;57617;51.988;5.854;2023-08-12T06:20:01;27.00;;;14.77;;
70228;SDS011;57617;51.988;5.854;2023-08-12T06:22:27;27.10;;;14.80;;
70228;SDS011;57617;51.988;5.854;2023-08-12T06:24:52;27.77;;;15.73;;
70228;SDS011;57617;51.988;5.854;2023-08-12T06:27:17;25.10;;;14.65;;
70228;SDS011;57617;51.988;5.854;2023-08-12T06:29:45;25.15;;;14.50;;
70228;SDS011;57617;51.988;5.854;2023-08-12T06:32:11;27.80;;;14.25;;
70228;SDS011;57617;51.988;5.854;2023-08-12T06:34:37;25.77;;;13.65;;
70228;SDS011;57617;51.988;5.854;2023-08-12T06:37:03;24.65;;;13.15;;
70228;SDS011;57617;51.988;5.854;2023-08-12T06:39:28;25.52;;;11.23;;
70228;SDS011;57617;51.988;5.854;2023-08-12T06:41:54;18.75;;;9.55;;
70228;SDS011;57617;51.988;5.854;2023-08-12T06:44:20;15.50;;;8.30;;
70228;SDS011;57617;51.988;5.854;2023-08-12T06:46:46;16.83;;;8.70;;
70228;SDS011;57617;51.988;5.854;2023-08-12T06:49:11;18.02;;;8.32;;
70228;SDS011;57617;51.988;5.854;2023-08-12T06:51:37;16.23;;;8.10;;
70228;SDS011;57617;51.988;5.854;2023-08-12T06:54:02;17.23;;;8.27;;
70228;SDS011;57617;51.988;5.854;2023-08-12T06:56:28;18.70;;;8.77;;
70228;SDS011;57617;51.988;5.854;2023-08-12T06:58:53;18.13;;;9.18;;
70228;SDS011;57617;51.988;5.854;2023-08-12T07:01:18;15.25;;;8.40;;
70228;SDS011;57617;51.988;5.854;2023-08-12T07:03:44;14.75;;;8.60;;
70228;SDS011;57617;51.988;5.854;2023-08-12T07:06:09;18.25;;;8.38;;
70228;SDS011;57617;51.988;5.854;2023-08-12T07:08:35;15.05;;;8.02;;
70228;SDS011;57617;51.988;5.854;2023-08-12T07:11:00;20.05;;;8.00;;
70228;SDS011;57617;51.988;5.854;2023-08-12T07:13:25;12.95;;;7.82;;
70228;SDS011;57617;51.988;5.854;2023-08-12T07:15:51;17.08;;;8.02;;
70228;SDS011;57617;51.988;5.854;2023-08-12T07:18:16;14.45;;;7.63;;
70228;SDS011;57617;51.988;5.854;2023-08-12T07:20:41;15.43;;;8.65;;
70228;SDS011;57617;51.988;5.854;2023-08-12T07:23:07;14.02;;;8.15;;
70228;SDS011;57617;51.988;5.854;2023-08-12T07:25:32;15.35;;;8.70;;
70228;SDS011;57617;51.988;5.854;2023-08-12T07:27:57;19.15;;;9.38;;
70228;SDS011;57617;51.988;5.854;2023-08-12T07:30:23;19.88;;;9.95;;
70228;SDS011;57617;51.988;5.854;2023-08-12T07:32:48;19.95;;;9.82;;
70228;SDS011;57617;51.988;5.854;2023-08-12T07:35:14;19.02;;;10.65;;
70228;SDS011;57617;51.988;5.854;2023-08-12T07:37:39;19.30;;;10.40;;
70228;SDS011;57617;51.988;5.854;2023-08-12T07:40:05;17.38;;;10.13;;
70228;SDS011;57617;51.988;5.854;2023-08-12T07:42:30;16.17;;;9.38;;
70228;SDS011;57617;51.988;5.854;2023-08-12T07:44:56;18.00;;;9.65;;
70228;SDS011;57617;51.988;5.854;2023-08-12T07:47:21;15.85;;;9.15;;
70228;SDS011;57617;51.988;5.854;2023-08-12T07:49:46;20.80;;;9.55;;
70228;SDS011;57617;51.988;5.854;2023-08-12T07:52:12;17.95;;;9.55;;
70228;SDS011;57617;51.988;5.854;2023-08-12T07:54:37;17.60;;;9.90;;
70228;SDS011;57617;51.988;5.854;2023-08-12T07:57:02;16.80;;;9.75;;
70228;SDS011;57617;51.988;5.854;2023-08-12T07:59:28;19.60;;;11.70;;
70228;SDS011;57617;51.988;5.854;2023-08-12T08:01:54;20.45;;;9.50;;
70228;SDS011;57617;51.988;5.854;2023-08-12T08:04:19;15.77;;;8.02;;
70228;SDS011;57617;51.988;5.854;2023-08-12T08:06:44;14.73;;;7.15;;
70228;SDS011;57617;51.988;5.854;2023-08-12T08:09:09;13.38;;;7.32;;
70228;SDS011;57617;51.988;5.854;2023-08-12T08:11:35;16.63;;;8.25;;
70228;SDS011;57617;51.988;5.854;2023-08-12T08:14:01;12.15;;;7.28;;
70228;SDS011;57617;51.988;5.854;2023-08-12T08:16:26;13.98;;;7.05;;
70228;SDS011;57617;51.988;5.854;2023-08-12T08:18:51;12.88;;;6.95;;
70228;SDS011;57617;51.988;5.854;2023-08-12T08:21:17;12.38;;;6.43;;
70228;SDS011;57617;51.988;5.854;2023-08-12T08:23:42;9.30;;;6.35;;
70228;SDS011;57617;51.988;5.854;2023-08-12T08:26:08;10.27;;;6.03;;
70228;SDS011;57617;51.988;5.854;2023-08-12T08:28:34;11.38;;;5.78;;
70228;SDS011;57617;51.988;5.854;2023-08-12T08:30:59;11.02;;;5.57;;
70228;SDS011;57617;51.988;5.854;2023-08-12T08:33:25;8.32;;;5.50;;
70228;SDS011;57617;51.988;5.854;2023-08-12T08:35:51;8.40;;;5.55;;
70228;SDS011;57617;51.988;5.854;2023-08-12T08:38:16;8.77;;;5.60;;
70228;SDS011;57617;51.988;5.854;2023-08-12T08:40:42;8.38;;;5.55;;
70228;SDS011;57617;51.988;5.854;2023-08-12T08:43:07;8.20;;;5.20;;
70228;SDS011;57617;51.988;5.854;2023-08-12T08:45:34;8.68;;;5.20;;
70228;SDS011;57617;51.988;5.854;2023-08-12T08:48:00;7.90;;;5.32;;
70228;SDS011;57617;51.988;5.854;2023-08-12T08:50:30;8.23;;;5.90;;
70228;SDS011;57617;51.988;5.854;2023-08-12T08:52:56;8.80;;;5.68;;
70228;SDS011;57617;51.988;5.854;2023-08-12T08:55:22;9.75;;;6.25;;
70228;SDS011;57617;51.988;5.854;2023-08-12T08:57:47;9.50;;;6.35;;
70228;SDS011;57617;51.988;5.854;2023-08-12T09:00:14;10.45;;;6.53;;
70228;SDS011;57617;51.988;5.854;2023-08-12T09:02:41;8.85;;;5.72;;
70228;SDS011;57617;51.988;5.854;2023-08-12T09:05:08;8.13;;;6.30;;
70228;SDS011;57617;51.988;5.854;2023-08-12T09:07:33;11.57;;;6.60;;
70228;SDS011;57617;51.988;5.854;2023-08-12T09:09:59;8.00;;;5.47;;
70228;SDS011;57617;51.988;5.854;2023-08-12T09:12:25;7.60;;;5.30;;
70228;SDS011;57617;51.988;5.854;2023-08-12T09:14:51;7.78;;;5.40;;
70228;SDS011;57617;51.988;5.854;2023-08-12T09:17:16;7.13;;;5.78;;
70228;SDS011;57617;51.988;5.854;2023-08-12T09:19:42;7.10;;;5.38;;
70228;SDS011;57617;51.988;5.854;2023-08-12T09:22:07;7.57;;;5.28;;
70228;SDS011;57617;51.988;5.854;2023-08-12T09:24:36;6.55;;;5.35;;
70228;SDS011;57617;51.988;5.854;2023-08-12T09:27:01;5.32;;;4.43;;
70228;SDS011;57617;51.988;5.854;2023-08-12T09:29:30;4.40;;;3.63;;
70228;SDS011;57617;51.988;5.854;2023-08-12T09:32:10;4.15;;;3.10;;
70228;SDS011;57617;51.988;5.854;2023-08-12T09:34:37;4.03;;;2.70;;
70228;SDS011;57617;51.988;5.854;2023-08-12T09:37:03;2.70;;;2.28;;
70228;SDS011;57617;51.988;5.854;2023-08-12T09:39:29;2.08;;;1.85;;
70228;SDS011;57617;51.988;5.854;2023-08-12T09:41:55;3.00;;;1.98;;
70228;SDS011;57617;51.988;5.854;2023-08-12T09:44:21;4.60;;;1.75;;
